createdAt,value
2022-10-17T00:00:21.315Z,5.50
2022-10-17T00:03:11.446Z,5.00
2022-10-17T00:05:59.939Z,5.77
2022-10-17T00:08:48.379Z,4.90
2022-10-17T00:11:36.987Z,4.63
2022-10-17T00:14:25.380Z,4.93
2022-10-17T00:17:15.107Z,5.13
2022-10-17T00:20:05.784Z,5.67
2022-10-17T00:22:54.569Z,4.80
2022-10-17T00:25:43.009Z,6.43
2022-10-17T00:28:31.650Z,5.87
2022-10-17T00:31:21.837Z,5.03
2022-10-17T00:34:10.280Z,5.50
2022-10-17T00:37:00.117Z,4.87
2022-10-17T00:39:48.522Z,6.20
2022-10-17T00:42:37.054Z,6.17
2022-10-17T00:45:27.576Z,5.30
2022-10-17T00:48:21.189Z,5.60
2022-10-17T00:51:11.888Z,6.07
2022-10-17T00:54:02.186Z,6.00
2022-10-17T00:56:51.112Z,6.50
2022-10-17T00:59:41.097Z,6.00
2022-10-17T01:02:29.919Z,5.23
2022-10-17T01:05:20.027Z,6.23
2022-10-17T01:08:08.754Z,5.07
2022-10-17T01:11:05.595Z,5.57
2022-10-17T01:13:57.399Z,6.20
2022-10-17T01:16:49.013Z,5.53
2022-10-17T01:19:51.411Z,5.97
2022-10-17T01:22:43.014Z,5.53
2022-10-17T01:25:37.813Z,6.07
2022-10-17T01:28:45.180Z,6.13
2022-10-17T01:31:38.716Z,5.70
2022-10-17T01:34:32.665Z,6.10
2022-10-17T01:37:23.110Z,4.97
2022-10-17T01:40:14.452Z,5.40
2022-10-17T01:43:06.481Z,5.17
2022-10-17T01:45:58.834Z,5.10
2022-10-17T01:48:48.781Z,5.47
2022-10-17T01:51:39.703Z,5.33
2022-10-17T01:54:32.092Z,5.80
2022-10-17T01:57:24.352Z,4.80
2022-10-17T02:00:16.393Z,4.70
2022-10-17T02:03:06.540Z,5.87
2022-10-17T02:05:56.436Z,5.10
2022-10-17T02:08:47.132Z,5.27
2022-10-17T02:11:35.589Z,5.87
2022-10-17T02:14:28.820Z,4.90
2022-10-17T02:17:22.321Z,4.60
2022-10-17T02:20:18.096Z,5.13
2022-10-17T02:23:11.902Z,5.23
2022-10-17T02:26:07.156Z,4.67
2022-10-17T02:29:04.756Z,5.10
2022-10-17T02:31:59.925Z,5.20
2022-10-17T02:34:50.343Z,5.90
2022-10-17T02:37:39.239Z,5.00
2022-10-17T02:40:31.252Z,5.23
2022-10-17T02:43:20.293Z,4.43
2022-10-17T02:46:08.938Z,5.60
2022-10-17T02:49:00.615Z,4.70
2022-10-17T02:51:53.459Z,5.27
2022-10-17T02:54:43.612Z,4.70
2022-10-17T02:57:37.246Z,5.20
2022-10-17T03:00:26.261Z,4.63
2022-10-17T03:03:22.518Z,5.23
2022-10-17T03:06:10.963Z,4.40
2022-10-17T03:08:59.391Z,5.30
2022-10-17T03:11:47.825Z,4.47
2022-10-17T03:14:37.615Z,5.00
2022-10-17T03:17:26.167Z,5.10
2022-10-17T03:20:14.623Z,4.97
2022-10-17T03:23:03.103Z,4.83
2022-10-17T03:25:51.509Z,5.80
2022-10-17T03:28:39.968Z,5.60
2022-10-17T03:31:29.857Z,5.00
2022-10-17T03:34:18.851Z,4.90
2022-10-17T03:37:07.308Z,4.80
2022-10-17T03:39:55.715Z,4.63
2022-10-17T03:42:44.207Z,4.50
2022-10-17T03:45:32.651Z,4.30
2022-10-17T03:48:22.435Z,4.57
2022-10-17T03:51:11.319Z,5.00
2022-10-17T03:53:59.712Z,4.30
2022-10-17T03:56:48.196Z,5.07
2022-10-17T03:59:36.648Z,5.50
2022-10-17T04:02:25.076Z,5.60
2022-10-17T04:05:14.873Z,5.00
2022-10-17T04:08:04.790Z,4.80
2022-10-17T04:10:53.530Z,4.63
2022-10-17T04:13:41.957Z,4.70
2022-10-17T04:16:30.607Z,4.30
2022-10-17T04:19:19.032Z,4.87
2022-10-17T04:22:09.390Z,4.80
2022-10-17T04:24:57.805Z,4.60
2022-10-17T04:27:46.456Z,5.23
2022-10-17T04:30:34.853Z,5.20
2022-10-17T04:33:23.266Z,5.67
2022-10-17T04:36:13.369Z,5.80
2022-10-17T04:39:03.525Z,5.40
2022-10-17T04:41:52.007Z,5.47
2022-10-17T04:44:40.669Z,4.80
2022-10-17T04:47:29.122Z,5.40
2022-10-17T04:50:17.761Z,4.97
2022-10-17T04:53:06.193Z,5.40
2022-10-17T04:55:55.965Z,5.53
2022-10-17T04:58:45.308Z,5.47
2022-10-17T05:01:33.777Z,4.97
2022-10-17T05:04:24.722Z,4.60
2022-10-17T05:07:13.497Z,6.27
2022-10-17T05:10:01.931Z,5.73
2022-10-17T05:12:52.232Z,5.33
2022-10-17T05:15:40.651Z,5.60
2022-10-17T05:18:29.471Z,6.20
2022-10-17T05:21:18.199Z,5.77
2022-10-17T05:24:07.246Z,6.07
2022-10-17T05:26:55.675Z,6.53
2022-10-17T05:29:45.639Z,5.33
2022-10-17T05:32:34.126Z,5.00
2022-10-17T05:35:23.166Z,5.77
2022-10-17T05:38:11.590Z,5.40
2022-10-17T05:41:00.586Z,5.80
2022-10-17T05:43:50.146Z,5.00
2022-10-17T05:46:40.074Z,5.47
2022-10-17T05:49:43.626Z,5.50
2022-10-17T05:52:34.681Z,5.60
2022-10-17T05:55:23.397Z,5.03
2022-10-17T05:58:21.746Z,5.17
2022-10-17T06:01:12.805Z,5.57
2022-10-17T06:04:02.811Z,5.30
2022-10-17T06:06:51.315Z,5.80
2022-10-17T06:09:40.086Z,5.50
2022-10-17T06:12:28.779Z,5.10
2022-10-17T06:15:17.515Z,5.80
2022-10-17T06:18:06.074Z,5.50
2022-10-17T06:20:55.826Z,5.20
2022-10-17T06:23:44.283Z,5.20
2022-10-17T06:26:32.688Z,4.37
2022-10-17T06:29:21.291Z,4.97
2022-10-17T06:32:12.638Z,5.80
2022-10-17T06:35:03.587Z,4.53
2022-10-17T06:37:53.358Z,4.90
2022-10-17T06:40:42.102Z,4.30
2022-10-17T06:43:30.548Z,5.13
2022-10-17T06:46:19.836Z,5.50
2022-10-17T06:49:08.619Z,4.50
2022-10-17T06:51:57.112Z,3.97
2022-10-17T06:54:46.926Z,5.40
2022-10-17T06:57:35.624Z,4.70
2022-10-17T07:00:24.307Z,5.20
2022-10-17T07:03:12.873Z,4.50
2022-10-17T07:06:01.429Z,5.17
2022-10-17T07:08:50.465Z,4.00
2022-10-17T07:11:40.986Z,4.30
2022-10-17T07:14:32.003Z,4.20
2022-10-17T07:17:20.685Z,4.33
2022-10-17T07:20:10.414Z,5.20
2022-10-17T07:22:58.963Z,4.93
2022-10-17T07:25:47.382Z,5.33
2022-10-17T07:28:38.216Z,5.00
2022-10-17T07:31:26.729Z,4.57
2022-10-17T07:34:15.253Z,4.97
2022-10-17T07:37:04.007Z,4.70
2022-10-17T07:39:52.409Z,4.50
2022-10-17T07:42:40.881Z,5.30
2022-10-17T07:45:30.667Z,4.17
2022-10-17T07:48:19.539Z,4.87
2022-10-17T07:51:09.752Z,4.20
2022-10-17T07:53:58.173Z,5.10
2022-10-17T07:56:50.387Z,4.40
2022-10-17T07:59:39.255Z,4.73
2022-10-17T08:02:29.522Z,4.37
2022-10-17T08:05:18.155Z,4.33
2022-10-17T08:08:06.623Z,4.40
2022-10-17T08:10:59.618Z,4.30
2022-10-17T08:13:48.052Z,3.93
2022-10-17T08:16:36.626Z,4.30
2022-10-17T08:19:26.670Z,4.20
2022-10-17T08:22:15.132Z,4.57
2022-10-17T08:25:03.583Z,4.17
2022-10-17T08:27:52.225Z,3.60
2022-10-17T08:30:40.670Z,4.17
2022-10-17T08:33:29.131Z,4.40
2022-10-17T08:36:22.220Z,4.10
2022-10-17T08:39:10.674Z,3.50
2022-10-17T08:42:07.672Z,4.03
2022-10-17T08:45:04.231Z,3.67
2022-10-17T08:47:55.802Z,4.10
2022-10-17T08:50:46.792Z,3.97
2022-10-17T08:53:40.169Z,4.30
2022-10-17T08:56:47.955Z,3.30
2022-10-17T08:59:37.501Z,3.60
2022-10-17T09:02:36.357Z,3.67
2022-10-17T09:05:39.870Z,3.40
2022-10-17T09:08:41.849Z,3.40
2022-10-17T09:11:44.512Z,3.40
2022-10-17T09:14:55.253Z,3.73
2022-10-17T09:17:49.692Z,3.50
2022-10-17T09:20:40.971Z,3.90
2022-10-17T09:23:32.390Z,3.17
2022-10-17T09:26:22.274Z,3.27
2022-10-17T09:29:17.169Z,2.90
2022-10-17T09:32:13.404Z,3.67
2022-10-17T09:35:01.844Z,3.33
2022-10-17T09:37:50.953Z,3.60
2022-10-17T09:40:39.403Z,3.80
2022-10-17T09:43:29.504Z,3.33
2022-10-17T09:46:23.581Z,3.70
2022-10-17T09:49:16.456Z,3.07
2022-10-17T09:52:08.291Z,3.00
2022-10-17T09:54:59.707Z,3.30
2022-10-17T09:57:56.431Z,3.20
2022-10-17T10:00:48.786Z,3.00
2022-10-17T10:03:38.959Z,3.70
2022-10-17T10:06:27.463Z,2.93
2022-10-17T10:09:23.475Z,3.43
2022-10-17T10:12:19.748Z,3.87
2022-10-17T10:15:34.804Z,3.10
2022-10-17T10:18:33.754Z,2.80
2022-10-17T10:21:23.928Z,3.10
2022-10-17T10:24:14.548Z,3.13
2022-10-17T10:27:04.408Z,2.80
2022-10-17T10:29:54.096Z,2.90
2022-10-17T10:32:46.780Z,3.20
2022-10-17T10:35:38.096Z,2.97
2022-10-17T10:38:26.632Z,2.80
2022-10-17T10:41:15.102Z,2.60
2022-10-17T10:44:06.374Z,3.07
2022-10-17T10:47:08.569Z,2.67
2022-10-17T10:50:10.467Z,2.80
2022-10-17T10:53:19.153Z,3.40
2022-10-17T10:56:13.253Z,3.03
2022-10-17T10:59:05.305Z,2.87
2022-10-17T11:01:56.909Z,3.40
2022-10-17T11:04:48.553Z,3.57
2022-10-17T11:07:40.722Z,3.20
2022-10-17T11:10:34.659Z,3.40
2022-10-17T11:13:28.779Z,2.90
2022-10-17T11:16:27.025Z,2.73
2022-10-17T11:19:19.728Z,3.20
2022-10-17T11:22:12.623Z,3.00
2022-10-17T11:25:06.226Z,4.47
2022-10-17T11:27:58.695Z,3.50
2022-10-17T11:30:52.894Z,3.60
2022-10-17T11:33:46.794Z,3.17
2022-10-17T11:36:37.851Z,4.47
2022-10-17T11:39:32.526Z,3.40
2022-10-17T11:42:24.648Z,2.97
2022-10-17T11:45:18.247Z,3.10
2022-10-17T11:48:11.556Z,3.13
2022-10-17T11:54:19.151Z,2.90
2022-10-17T11:57:24.448Z,2.93
2022-10-17T12:00:25.630Z,2.77
2022-10-17T12:03:30.088Z,3.40
2022-10-17T12:06:29.150Z,2.83
2022-10-17T12:09:26.156Z,2.77
2022-10-17T12:12:26.970Z,2.70
2022-10-17T12:15:31.306Z,3.10
2022-10-17T12:18:19.871Z,2.70
2022-10-17T12:21:08.376Z,2.93
2022-10-17T12:23:56.995Z,2.60
2022-10-17T12:26:45.506Z,2.30
2022-10-17T12:29:40.477Z,3.17
2022-10-17T12:32:36.819Z,2.93
2022-10-17T12:35:37.176Z,2.50
2022-10-17T12:38:27.897Z,2.80
2022-10-17T12:41:16.422Z,2.70
2022-10-17T12:44:37.919Z,3.20
2022-10-17T12:47:39.180Z,3.00
2022-10-17T12:51:34.654Z,2.90
2022-10-17T12:54:13.173Z,2.53
2022-10-17T12:57:01.630Z,2.77
2022-10-17T12:59:50.354Z,2.70
2022-10-17T13:02:40.345Z,2.40
2022-10-17T13:05:31.145Z,2.63
2022-10-17T13:08:22.310Z,2.50
2022-10-17T13:11:11.488Z,2.30
2022-10-17T13:14:02.224Z,2.43
2022-10-17T13:16:55.323Z,2.70
2022-10-17T13:19:46.512Z,2.43
2022-10-17T13:22:35.155Z,2.50
2022-10-17T13:25:24.482Z,2.53
2022-10-17T13:28:14.510Z,2.73
2022-10-17T13:31:05.216Z,2.60
2022-10-17T13:33:57.309Z,2.47
2022-10-17T13:36:48.946Z,2.60
2022-10-17T13:40:07.058Z,2.47
2022-10-17T13:42:53.019Z,2.70
2022-10-17T13:45:45.632Z,2.37
2022-10-17T13:48:39.145Z,2.40
2022-10-17T13:51:28.651Z,2.50
2022-10-17T13:54:33.175Z,2.30
2022-10-17T13:57:24.073Z,2.70
2022-10-17T14:00:19.873Z,2.60
2022-10-17T14:03:08.335Z,2.17
2022-10-17T14:06:03.531Z,3.57
2022-10-17T14:08:58.963Z,2.50
2022-10-17T14:11:59.025Z,2.80
2022-10-17T14:15:09.208Z,3.00
2022-10-17T14:18:01.487Z,2.70
2022-10-17T14:21:36.931Z,2.97
2022-10-17T14:24:17.041Z,2.30
2022-10-17T14:27:29.407Z,2.90
2022-10-17T14:30:55.187Z,2.60
2022-10-17T14:33:49.670Z,3.10
2022-10-17T14:36:42.015Z,2.43
2022-10-17T14:39:30.644Z,3.17
2022-10-17T14:42:20.677Z,2.30
2022-10-17T14:45:17.313Z,2.87
2022-10-17T14:48:12.173Z,2.73
2022-10-17T14:51:08.274Z,2.70
2022-10-17T14:54:06.259Z,2.50
2022-10-17T14:56:55.913Z,2.97
2022-10-17T14:59:59.913Z,2.57
2022-10-17T15:02:50.815Z,2.57
2022-10-17T15:05:39.290Z,2.63
2022-10-17T15:08:27.713Z,3.30
2022-10-17T15:11:16.166Z,2.53
2022-10-17T15:14:04.847Z,2.57
2022-10-17T15:16:53.242Z,3.23
2022-10-17T15:19:43.136Z,2.63
2022-10-17T15:22:32.398Z,2.87
2022-10-17T15:25:21.480Z,3.00
2022-10-17T15:28:10.844Z,3.10
2022-10-17T15:30:59.284Z,2.90
2022-10-17T15:33:48.180Z,2.80
2022-10-17T15:36:40.543Z,2.80
2022-10-17T15:39:29.038Z,3.00
2022-10-17T15:42:17.436Z,3.10
2022-10-17T15:48:05.494Z,3.10
2022-10-17T15:50:53.977Z,3.00
2022-10-17T15:53:43.953Z,3.10
2022-10-17T15:56:36.112Z,3.17
2022-10-17T15:59:34.940Z,3.03
2022-10-17T16:02:25.418Z,3.73
2022-10-17T16:05:17.214Z,3.80
2022-10-17T16:08:06.600Z,3.67
2022-10-17T16:10:56.937Z,3.43
2022-10-17T16:13:50.806Z,3.47
2022-10-17T16:16:39.925Z,4.80
2022-10-17T16:19:29.890Z,3.40
2022-10-17T16:22:21.954Z,3.83
2022-10-17T16:25:19.497Z,3.73
2022-10-17T16:28:09.471Z,3.73
2022-10-17T16:30:57.924Z,3.70
2022-10-17T16:33:46.343Z,4.53
2022-10-17T16:36:34.817Z,3.90
2022-10-17T16:39:23.271Z,4.30
2022-10-17T16:42:11.723Z,4.40
2022-10-17T16:45:01.736Z,3.83
2022-10-17T16:47:50.687Z,5.43
2022-10-17T16:50:40.866Z,5.10
2022-10-17T16:53:29.321Z,3.80
2022-10-17T16:56:20.097Z,5.27
2022-10-17T16:59:08.760Z,4.07
2022-10-17T17:01:58.539Z,4.90
2022-10-17T17:04:46.992Z,4.47
2022-10-17T17:07:35.517Z,4.50
2022-10-17T17:10:23.966Z,4.53
2022-10-17T17:13:12.514Z,4.80
2022-10-17T17:16:05.470Z,4.80
2022-10-17T17:18:57.543Z,4.67
2022-10-17T17:21:50.142Z,5.90
2022-10-17T17:24:38.690Z,5.80
2022-10-17T17:27:29.269Z,5.37
2022-10-17T17:30:18.219Z,5.60
2022-10-17T17:33:06.680Z,6.37
2022-10-17T17:35:57.711Z,5.40
2022-10-17T17:38:46.685Z,5.70
2022-10-17T17:41:35.836Z,5.20
2022-10-17T17:44:24.331Z,5.87
2022-10-17T17:47:12.792Z,5.70
2022-10-17T17:50:02.356Z,6.47
2022-10-17T17:52:52.178Z,6.37
2022-10-17T17:55:40.804Z,6.57
2022-10-17T17:58:29.269Z,6.20
2022-10-17T18:01:21.910Z,5.40
2022-10-17T18:04:10.628Z,6.10
2022-10-17T18:06:59.065Z,5.77
2022-10-17T18:09:50.721Z,8.23
2022-10-17T18:12:39.202Z,6.83
2022-10-17T18:15:27.764Z,6.70
2022-10-17T18:18:16.220Z,6.73
2022-10-17T18:21:04.828Z,5.97
2022-10-17T18:23:53.233Z,6.57
2022-10-17T18:26:43.093Z,5.83
2022-10-17T18:29:32.733Z,6.50
2022-10-17T18:32:21.961Z,6.23
2022-10-17T18:35:10.975Z,7.23
2022-10-17T18:37:59.501Z,7.17
2022-10-17T18:40:50.646Z,7.53
2022-10-17T18:43:42.268Z,7.53
2022-10-17T18:46:35.557Z,6.93
2022-10-17T18:49:24.994Z,6.70
2022-10-17T18:52:13.442Z,6.57
2022-10-17T18:55:01.881Z,6.80
2022-10-17T18:57:50.713Z,7.87
2022-10-17T19:00:40.529Z,6.97
2022-10-17T19:03:29.002Z,6.43
2022-10-17T19:06:19.384Z,6.27
2022-10-17T19:09:09.823Z,6.83
2022-10-17T19:11:58.362Z,6.70
2022-10-17T19:14:46.844Z,6.37
2022-10-17T19:17:36.697Z,6.10
2022-10-17T19:20:25.185Z,6.30
2022-10-17T19:23:13.682Z,6.70
2022-10-17T19:26:03.618Z,7.47
2022-10-17T19:28:53.613Z,6.40
2022-10-17T19:31:42.548Z,6.47
2022-10-17T19:34:32.425Z,6.60
2022-10-17T19:37:20.928Z,6.50
2022-10-17T19:40:10.454Z,7.17
2022-10-17T19:42:58.967Z,6.37
2022-10-17T19:45:55.615Z,6.87
2022-10-17T19:48:44.381Z,7.33
2022-10-17T19:51:34.278Z,5.93
2022-10-17T19:54:23.460Z,6.27
2022-10-17T19:57:11.950Z,6.33
2022-10-17T20:00:00.491Z,6.43
2022-10-17T20:02:48.897Z,6.20
2022-10-17T20:05:38.674Z,6.67
2022-10-17T20:08:28.932Z,6.80
2022-10-17T20:11:20.264Z,5.97
2022-10-17T20:14:08.752Z,6.60
2022-10-17T20:16:57.299Z,5.63
2022-10-17T20:19:48.536Z,6.07
2022-10-17T20:22:37.036Z,5.97
2022-10-17T20:25:26.827Z,6.23
2022-10-17T20:28:15.367Z,6.50
2022-10-17T20:31:03.786Z,6.63
2022-10-17T20:33:56.165Z,7.57
2022-10-17T20:36:44.666Z,6.70
2022-10-17T20:39:33.149Z,7.20
2022-10-17T20:42:22.981Z,6.23
2022-10-17T20:45:12.006Z,6.07
2022-10-17T20:48:00.432Z,6.43
2022-10-17T20:50:49.108Z,6.60
2022-10-17T20:53:38.055Z,6.57
2022-10-17T20:56:28.893Z,6.70
2022-10-17T20:59:19.311Z,5.63
2022-10-17T21:02:08.222Z,6.40
2022-10-17T21:04:56.685Z,6.73
2022-10-17T21:07:45.358Z,5.80
2022-10-17T21:10:35.818Z,6.33
2022-10-17T21:13:24.483Z,5.93
2022-10-17T21:16:15.855Z,6.10
2022-10-17T21:19:05.164Z,6.50
2022-10-17T21:21:53.904Z,6.17
2022-10-17T21:24:42.353Z,6.83
2022-10-17T21:27:30.763Z,6.50
2022-10-17T21:30:19.801Z,5.60
2022-10-17T21:33:09.586Z,6.80
2022-10-17T21:35:58.145Z,6.20
2022-10-17T21:38:47.953Z,6.50
2022-10-17T21:41:36.369Z,6.63
2022-10-17T21:44:27.094Z,6.73
2022-10-17T21:47:15.515Z,6.17
2022-10-17T21:50:05.912Z,5.73
2022-10-17T21:52:54.333Z,6.67
2022-10-17T21:55:42.805Z,6.27
2022-10-17T21:58:31.545Z,6.27
2022-10-17T22:01:22.830Z,5.83
2022-10-17T22:04:14.060Z,5.80
2022-10-17T22:07:03.834Z,6.60
2022-10-17T22:09:52.271Z,6.10
2022-10-17T22:12:40.728Z,5.90
2022-10-17T22:15:29.395Z,5.83
2022-10-17T22:18:17.836Z,6.97
2022-10-17T22:21:07.479Z,6.30
2022-10-17T22:23:59.094Z,6.40
2022-10-17T22:26:48.435Z,6.80
2022-10-17T22:29:36.862Z,5.87
2022-10-17T22:32:25.282Z,5.93
2022-10-17T22:35:14.206Z,6.57
2022-10-17T22:38:02.598Z,6.17
2022-10-17T22:40:52.384Z,6.40
2022-10-17T22:43:40.815Z,6.60
2022-10-17T22:46:29.901Z,6.40
2022-10-17T22:49:18.370Z,6.47
2022-10-17T22:52:06.791Z,5.70
2022-10-17T22:54:55.199Z,5.93
2022-10-17T22:57:45.109Z,5.97
2022-10-17T23:00:33.538Z,6.00
2022-10-17T23:03:23.628Z,6.10
2022-10-17T23:06:12.053Z,6.47
2022-10-17T23:09:00.542Z,5.93
2022-10-17T23:11:49.003Z,6.70
2022-10-17T23:14:38.830Z,6.07
2022-10-17T23:17:27.249Z,6.10
2022-10-17T23:20:15.738Z,7.27
2022-10-17T23:23:04.224Z,6.20
2022-10-17T23:25:52.658Z,5.80
2022-10-17T23:28:41.411Z,5.90
2022-10-17T23:31:31.662Z,6.60
2022-10-17T23:34:20.109Z,6.50
2022-10-17T23:37:08.537Z,6.73
2022-10-17T23:39:57.058Z,7.20
2022-10-17T23:42:45.975Z,7.40
2022-10-17T23:45:36.263Z,6.53
2022-10-17T23:48:26.785Z,6.80
2022-10-17T23:51:15.220Z,7.27
2022-10-17T23:54:04.609Z,6.73
2022-10-17T23:56:53.028Z,6.63
2022-10-17T23:59:41.434Z,6.60
